EDDH/HAM METAR and TAF weather

Enter ICAO airport designator
Station Type Date Time Source
EDDH METAR 2017/08/21 23:20 UTC NOAA

EDDH 212320Z 00000KT 9999 FEW044 11/11 Q1021 NOSIG


Station Type Date Time Source
EDDH Decoded METAR 2017/08/21 23:20 UTC NOAA

Hamburg-Fuhlsbuettel, Germany (EDDH) 53-38N 010-00E 15M
Aug 21, 2017 - 07:20 PM EDT / 2017.08.21 2320 UTC
Wind: Calm:0
Visibility: greater than 7 mile(s):0
Sky conditions: mostly clear
Temperature: 51 F (11 C)
Dew Point: 51 F (11 C)
Relative Humidity: 100%
Pressure (altimeter): 30.15 in. Hg (1021 hPa)
ob: EDDH 212320Z 00000KT 9999 FEW044 11/11 Q1021 NOSIG
cycle: 23

Station Type Date Time Source
EDDH TAF 2017/08/21 18:27 UTC NOAA

TAF EDDH 211700Z 2118/2224 30009KT 9999 SCT030
BECMG 2118/2120 29004KT
BECMG 2206/2209 32009KT
BECMG 2217/2220 VRB03KT


Example: see airport list